Burgtor — V2OR7 — position and weather

sailwx.info

Track history (hours):
 
Tides and Currents Weather Stations Pressure Air Temp Water Temp Dewpoint Dewpoint Depression Visibility Wind Speed Wind Dir Waves Ship Positions

Burgtor

Last reported at 2016-Jul-26 13:33 UTC. Time now 2016-Jul-26 14:08 UTC.
Position N 51°25' E 001°23'.

Length 87 m; draft 3.3 m.

Type: Cargo ship. MMSI: 304665000.

Date/timePositionNaut miles runAvg speedWind from/ knotsBaromVisibWave heightAir tempDewpointWater temp
2016-Jul-26 13:33N 51°25' E 001°23'0 0.0
2016-Jul-26 12:33N 51°25' E 001°23'0 0.1
2016-Jul-26 11:33N 51°25' E 001°23'0 0.1
2016-Jul-26 10:33N 51°25' E 001°23'0 0.0
2016-Jul-26 09:34N 51°25' E 001°23'0 0.0
2016-Jul-26 08:34N 51°25' E 001°23'0 0.0
2016-Jul-26 07:33N 51°25' E 001°23'0 0.0
2016-Jul-26 06:33N 51°25' E 001°23'0 0.0
2016-Jul-26 05:34N 51°25' E 001°23'0 0.1
2016-Jul-26 04:33N 51°25' E 001°23'0 0.0
2016-Jul-26 03:33N 51°25' E 001°23'0 0.0
2016-Jul-26 02:34N 51°25' E 001°23'0 0.0
2016-Jul-26 01:33N 51°25' E 001°23'0 0.1
2016-Jul-26 00:33N 51°25' E 001°23'0 0.1
2016-Jul-25 23:33N 51°25' E 001°23'0 0.0
2016-Jul-25 22:33N 51°25' E 001°23'1 1.2
2016-Jul-25 21:34N 51°25' E 001°25'8 7.5
2016-Jul-25 20:32N 51°29' E 001°14'1010.1
2016-Jul-25 19:33N 51°29' E 000°58'1110.9
2016-Jul-25 18:34N 51°30' E 000°41'10 9.6
2016-Jul-25 17:34N 51°27' E 000°26'8 7.5
2016-Jul-25 16:33N 51°28' E 000°14'3 2.6
2016-Jul-25 15:32N 51°29' E 000°10'0 0.0
2016-Jul-25 14:29N 51°29' E 000°10'0 0.0
2016-Jul-25 13:26N 51°29' E 000°10'0 0.0
2016-Jul-25 12:32N 51°29' E 000°10'0 0.0
2016-Jul-25 11:32N 51°29' E 000°10'0 0.0
2016-Jul-25 10:26N 51°29' E 000°10'0 0.0
2016-Jul-25 09:32N 51°29' E 000°10'0 0.0
2016-Jul-25 08:32N 51°29' E 000°10'0 0.0
2016-Jul-25 07:32N 51°29' E 000°10'0 0.0
2016-Jul-25 06:32N 51°29' E 000°10'0 0.0
2016-Jul-25 05:29N 51°29' E 000°10'0 0.0
2016-Jul-25 04:32N 51°29' E 000°10'0 0.0
2016-Jul-25 03:32N 51°29' E 000°10'0 0.0
2016-Jul-25 02:32N 51°29' E 000°10'3 2.9
2016-Jul-25 01:34N 51°28' E 000°15'8 7.8
2016-Jul-25 00:33N 51°28' E 000°27'9 8.9
2016-Jul-24 23:34N 51°30' E 000°41'8 7.9
2016-Jul-24 22:33N 51°30' E 000°54'5 5.1
2016-Jul-24 21:32N 51°30' E 001°02'6 5.7
2016-Jul-24 20:33N 51°29' E 001°11'6 5.5
2016-Jul-24 19:33N 51°29' E 001°20'5 5.4
2016-Jul-24 18:33N 51°27' E 001°29'7 7.5
2016-Jul-24 17:34N 51°21' E 001°35'10 9.5
2016-Jul-24 16:34N 51°12' E 001°37'8 8.4
2016-Jul-24 15:33N 51°03' E 001°37'197 8.4
2016-Jul-23 16:12N 49°51' W 003°11'4 6.7
2016-Jul-23 15:33N 49°51' W 003°18'8 7.0
2016-Jul-23 14:24N 49°52' W 003°31'272 6.1
2016-Jul-21 17:33N 54°16' W 005°20'7 7.4
2016-Jul-21 16:34N 54°23' W 005°18'7 7.1
2016-Jul-21 15:33N 54°30' W 005°21'6 6.3
2016-Jul-21 14:33N 54°36' W 005°24'6 5.6
2016-Jul-21 13:33N 54°41' W 005°28'5 5.3
2016-Jul-21 12:33N 54°42' W 005°37'6 0.4
2016-Jul-20 21:32N 54°41' W 005°47'9 9.3
2016-Jul-20 20:33N 54°49' W 005°38'3210.7
2016-Jul-20 17:32N 55°18' W 006°04'8 7.8
2016-Jul-20 16:33N 55°22' W 006°15'8 7.8
2016-Jul-20 15:34N 55°19' W 006°28'8 7.9
2016-Jul-20 14:30N 55°17' W 006°43'2 0.0
2016-Jul-18 16:08N 55°17' W 006°46'3 5.6
2016-Jul-18 15:33N 55°18' W 006°41'5 5.5
2016-Jul-18 14:33N 55°21' W 006°32'7 7.1
2016-Jul-18 13:33N 55°25' W 006°22'7 7.5
2016-Jul-18 12:33N 55°26' W 006°09'8 8.2
2016-Jul-18 11:33N 55°21' W 005°57'30 7.6
2016-Jul-18 07:33N 54°53' W 005°35'7 6.9
2016-Jul-18 06:33N 54°47' W 005°31'6 6.3
2016-Jul-18 05:33N 54°41' W 005°28'7 7.0
2016-Jul-18 04:33N 54°34' W 005°23'8 8.2
2016-Jul-18 03:33N 54°26' W 005°19'9 8.6
2016-Jul-18 02:33N 54°18' W 005°20'216 8.6
2016-Jul-17 01:33N 50°43' W 005°51'9 8.9
2016-Jul-17 00:33N 50°34' W 005°52'9 8.8
2016-Jul-16 23:33N 50°25' W 005°52'9 8.7
2016-Jul-16 22:33N 50°17' W 005°52'9 8.7
2016-Jul-16 21:33N 50°08' W 005°52'9 7.3
2016-Jul-16 20:18N 49°59' W 005°48'7 8.9
2016-Jul-16 19:33N 49°58' W 005°38'18 8.8
2016-Jul-16 17:28N 49°55' W 005°10'9 8.0
2016-Jul-16 16:23N 49°57' W 004°57'7 7.7
2016-Jul-16 15:32N 49°58' W 004°47'11 7.5
2016-Jul-16 14:05N 50°00' W 004°30'  
Track history (hours):
 
Tides and Currents Weather Stations Pressure Air Temp Water Temp Dewpoint Dewpoint Depression Visibility Wind Speed Wind Dir Waves Ship Positions

Burgtor

Last reported at 2016-Jul-26 13:33 UTC. Time now 2016-Jul-26 14:08 UTC.
Position N 51°25' E 001°23'.

Length 87 m; draft 3.3 m.

Type: Cargo ship. MMSI: 304665000.

Date/timePositionNaut miles runAvg speedWind from/ knotsBaromVisibWave heightAir tempDewpointWater temp
2016-Jul-26 13:33N 51°25' E 001°23'0 0.0
2016-Jul-26 12:33N 51°25' E 001°23'0 0.1
2016-Jul-26 11:33N 51°25' E 001°23'0 0.1
2016-Jul-26 10:33N 51°25' E 001°23'0 0.0
2016-Jul-26 09:34N 51°25' E 001°23'0 0.0
2016-Jul-26 08:34N 51°25' E 001°23'0 0.0
2016-Jul-26 07:33N 51°25' E 001°23'0 0.0
2016-Jul-26 06:33N 51°25' E 001°23'0 0.0
2016-Jul-26 05:34N 51°25' E 001°23'0 0.1
2016-Jul-26 04:33N 51°25' E 001°23'0 0.0
2016-Jul-26 03:33N 51°25' E 001°23'0 0.0
2016-Jul-26 02:34N 51°25' E 001°23'0 0.0
2016-Jul-26 01:33N 51°25' E 001°23'0 0.1
2016-Jul-26 00:33N 51°25' E 001°23'0 0.1
2016-Jul-25 23:33N 51°25' E 001°23'0 0.0
2016-Jul-25 22:33N 51°25' E 001°23'1 1.2
2016-Jul-25 21:34N 51°25' E 001°25'8 7.5
2016-Jul-25 20:32N 51°29' E 001°14'1010.1
2016-Jul-25 19:33N 51°29' E 000°58'1110.9
2016-Jul-25 18:34N 51°30' E 000°41'10 9.6
2016-Jul-25 17:34N 51°27' E 000°26'8 7.5
2016-Jul-25 16:33N 51°28' E 000°14'3 2.6
2016-Jul-25 15:32N 51°29' E 000°10'0 0.0
2016-Jul-25 14:29N 51°29' E 000°10'0 0.0
2016-Jul-25 13:26N 51°29' E 000°10'0 0.0
2016-Jul-25 12:32N 51°29' E 000°10'0 0.0
2016-Jul-25 11:32N 51°29' E 000°10'0 0.0
2016-Jul-25 10:26N 51°29' E 000°10'0 0.0
2016-Jul-25 09:32N 51°29' E 000°10'0 0.0
2016-Jul-25 08:32N 51°29' E 000°10'0 0.0
2016-Jul-25 07:32N 51°29' E 000°10'0 0.0
2016-Jul-25 06:32N 51°29' E 000°10'0 0.0
2016-Jul-25 05:29N 51°29' E 000°10'0 0.0
2016-Jul-25 04:32N 51°29' E 000°10'0 0.0
2016-Jul-25 03:32N 51°29' E 000°10'0 0.0
2016-Jul-25 02:32N 51°29' E 000°10'3 2.9
2016-Jul-25 01:34N 51°28' E 000°15'8 7.8
2016-Jul-25 00:33N 51°28' E 000°27'9 8.9
2016-Jul-24 23:34N 51°30' E 000°41'8 7.9
2016-Jul-24 22:33N 51°30' E 000°54'5 5.1
2016-Jul-24 21:32N 51°30' E 001°02'6 5.7
2016-Jul-24 20:33N 51°29' E 001°11'6 5.5
2016-Jul-24 19:33N 51°29' E 001°20'5 5.4
2016-Jul-24 18:33N 51°27' E 001°29'7 7.5
2016-Jul-24 17:34N 51°21' E 001°35'10 9.5
2016-Jul-24 16:34N 51°12' E 001°37'8 8.4
2016-Jul-24 15:33N 51°03' E 001°37'197 8.4
2016-Jul-23 16:12N 49°51' W 003°11'4 6.7
2016-Jul-23 15:33N 49°51' W 003°18'8 7.0
2016-Jul-23 14:24N 49°52' W 003°31'272 6.1
2016-Jul-21 17:33N 54°16' W 005°20'7 7.4
2016-Jul-21 16:34N 54°23' W 005°18'7 7.1
2016-Jul-21 15:33N 54°30' W 005°21'6 6.3
2016-Jul-21 14:33N 54°36' W 005°24'6 5.6
2016-Jul-21 13:33N 54°41' W 005°28'5 5.3
2016-Jul-21 12:33N 54°42' W 005°37'6 0.4
2016-Jul-20 21:32N 54°41' W 005°47'9 9.3
2016-Jul-20 20:33N 54°49' W 005°38'3210.7
2016-Jul-20 17:32N 55°18' W 006°04'8 7.8
2016-Jul-20 16:33N 55°22' W 006°15'8 7.8
2016-Jul-20 15:34N 55°19' W 006°28'8 7.9
2016-Jul-20 14:30N 55°17' W 006°43'2 0.0
2016-Jul-18 16:08N 55°17' W 006°46'3 5.6
2016-Jul-18 15:33N 55°18' W 006°41'5 5.5
2016-Jul-18 14:33N 55°21' W 006°32'7 7.1
2016-Jul-18 13:33N 55°25' W 006°22'7 7.5
2016-Jul-18 12:33N 55°26' W 006°09'8 8.2
2016-Jul-18 11:33N 55°21' W 005°57'30 7.6
2016-Jul-18 07:33N 54°53' W 005°35'7 6.9
2016-Jul-18 06:33N 54°47' W 005°31'6 6.3
2016-Jul-18 05:33N 54°41' W 005°28'7 7.0
2016-Jul-18 04:33N 54°34' W 005°23'8 8.2
2016-Jul-18 03:33N 54°26' W 005°19'9 8.6
2016-Jul-18 02:33N 54°18' W 005°20'216 8.6
2016-Jul-17 01:33N 50°43' W 005°51'9 8.9
2016-Jul-17 00:33N 50°34' W 005°52'9 8.8
2016-Jul-16 23:33N 50°25' W 005°52'9 8.7
2016-Jul-16 22:33N 50°17' W 005°52'9 8.7
2016-Jul-16 21:33N 50°08' W 005°52'9 7.3
2016-Jul-16 20:18N 49°59' W 005°48'7 8.9
2016-Jul-16 19:33N 49°58' W 005°38'18 8.8
2016-Jul-16 17:28N 49°55' W 005°10'9 8.0
2016-Jul-16 16:23N 49°57' W 004°57'7 7.7
2016-Jul-16 15:32N 49°58' W 004°47'11 7.5
2016-Jul-16 14:05N 50°00' W 004°30'  

Dump ship's entire track history